Time;durP1;ratioP1;P1;durP2;ratioP2;P2;SDS_P1;SDS_P2;PMS_P1;PMS_P2;Temp;Humidity;BMP_temperature;BMP_pressure;BME280_temperature;BME280_humidity;BME280_pressure;Samples;Min_cycle;Max_cycle;Signal;HPM_P1;HPM_P2
2021/05/05 00:02:11;;;;;;;2.60;2.50;;;10.10;99.90;;;;;;10476815;28;20258;-77
2021/05/05 00:07:13;;;;;;;2.63;2.53;;;10.00;99.90;;;;;;10485661;28;20223;-77
2021/05/05 00:12:16;;;;;;;3.03;2.83;;;10.00;99.90;;;;;;10474242;28;20220;-77
2021/05/05 00:17:17;;;;;;;2.60;2.50;;;9.90;99.90;;;;;;10480553;28;20286;-77
2021/05/05 00:22:19;;;;;;;3.00;2.90;;;9.80;99.90;;;;;;10488179;28;20270;-77
2021/05/05 00:27:22;;;;;;;4.90;4.70;;;9.80;99.90;;;;;;10481260;28;20221;-77
2021/05/05 00:32:23;;;;;;;5.53;5.13;;;9.70;99.90;;;;;;10480527;28;20283;-77
2021/05/05 00:37:26;;;;;;;4.93;4.63;;;9.70;99.90;;;;;;10472622;28;20266;-77
2021/05/05 00:42:28;;;;;;;4.50;4.30;;;9.70;99.90;;;;;;10472586;28;20670;-77
2021/05/05 00:47:30;;;;;;;5.43;5.13;;;9.50;99.90;;;;;;10493910;28;20236;-77
2021/05/05 00:52:31;;;;;;;5.13;4.70;;;9.40;99.90;;;;;;10476302;28;20227;-77
2021/05/05 00:57:34;;;;;;;4.97;4.77;;;9.30;99.90;;;;;;10498971;28;20224;-77
2021/05/05 01:02:36;;;;;;;5.40;5.10;;;9.30;99.90;;;;;;10481781;28;20228;-77
2021/05/05 01:07:38;;;;;;;5.57;5.17;;;9.30;99.90;;;;;;10496018;28;20200;-78
2021/05/05 01:12:43;;;;;;;5.23;4.90;;;9.30;99.90;;;;;;10483001;28;20261;-77
2021/05/05 01:17:47;;;;;;;5.03;4.60;;;9.20;99.90;;;;;;10486562;28;20196;-77
2021/05/05 01:22:52;;;;;;;5.00;4.60;;;9.10;99.90;;;;;;10476045;28;20217;-77
2021/05/05 01:27:55;;;;;;;3.80;3.60;;;9.00;99.90;;;;;;10439264;28;20307;-77
2021/05/05 01:32:56;;;;;;;3.67;3.37;;;9.00;99.90;;;;;;10493914;28;20221;-77
2021/05/05 01:38:01;;;;;;;3.30;3.10;;;9.00;99.90;;;;;;10482181;28;20197;-77
2021/05/05 01:43:05;;;;;;;2.90;2.60;;;9.10;99.90;;;;;;10475247;28;20212;-77
2021/05/05 01:48:11;;;;;;;3.23;3.03;;;9.20;99.90;;;;;;10474763;28;20628;-77
2021/05/05 01:53:16;;;;;;;3.53;2.67;;;9.20;99.90;;;;;;10481854;28;20557;-77
2021/05/05 01:58:18;;;;;;;2.60;2.40;;;9.30;99.90;;;;;;10491033;28;20292;-77
2021/05/05 02:03:20;;;;;;;3.07;2.43;;;9.40;99.90;;;;;;10493715;28;20240;-77
2021/05/05 02:08:31;;;;;;;2.13;1.93;;;9.40;99.90;;;;;;10457628;28;20196;-77
2021/05/05 02:13:34;;;;;;;2.33;2.10;;;9.30;99.90;;;;;;10467770;28;20271;-77
2021/05/05 02:18:36;;;;;;;1.90;1.80;;;9.20;99.90;;;;;;10444872;28;20201;-77
2021/05/05 02:23:39;;;;;;;3.03;2.40;;;9.10;99.90;;;;;;10473090;28;20251;-77
2021/05/05 02:28:41;;;;;;;2.63;2.40;;;9.10;99.90;;;;;;10497756;28;20224;-77
2021/05/05 02:33:57;;;;;;;2.70;2.50;;;9.10;99.90;;;;;;10479585;28;20222;-77
2021/05/05 02:39:04;;;;;;;2.77;2.53;;;9.10;99.90;;;;;;10490652;28;20192;-77
2021/05/05 02:44:07;;;;;;;2.60;2.50;;;9.20;99.90;;;;;;10479525;28;20350;-77
2021/05/05 02:49:10;;;;;;;2.60;2.50;;;9.20;99.90;;;;;;10472857;28;20257;-77
2021/05/05 02:54:12;;;;;;;3.43;2.50;;;9.20;99.90;;;;;;10479552;28;20708;-77
2021/05/05 02:59:14;;;;;;;3.30;3.13;;;9.20;99.90;;;;;;10478662;28;20208;-77
2021/05/05 03:04:16;;;;;;;3.50;3.20;;;9.10;99.90;;;;;;10489507;28;20289;-77
2021/05/05 03:09:21;;;;;;;5.23;4.93;;;9.00;99.90;;;;;;10496751;28;20200;-77
2021/05/05 03:14:23;;;;;;;8.20;7.80;;;8.90;99.90;;;;;;10489308;28;20205;-77
2021/05/05 03:19:25;;;;;;;8.70;8.20;;;8.80;99.90;;;;;;10464707;28;20250;-77
2021/05/05 03:24:28;;;;;;;7.17;6.87;;;8.80;99.90;;;;;;10478455;28;20587;-77
2021/05/05 03:29:29;;;;;;;9.23;8.83;;;8.70;99.90;;;;;;10479816;28;20205;-77
2021/05/05 03:34:31;;;;;;;9.13;8.73;;;8.70;99.90;;;;;;10474884;28;20323;-77
2021/05/05 03:39:33;;;;;;;9.87;9.17;;;8.70;99.90;;;;;;10488948;28;20204;-77
2021/05/05 03:44:36;;;;;;;9.03;8.63;;;8.70;99.90;;;;;;10477474;28;20274;-77
2021/05/05 03:49:38;;;;;;;9.03;8.63;;;8.60;99.90;;;;;;10488170;28;20242;-77
2021/05/05 03:54:40;;;;;;;10.53;9.60;;;8.60;99.90;;;;;;10481724;28;20197;-77
2021/05/05 03:59:42;;;;;;;9.57;8.87;;;8.60;99.90;;;;;;10492649;28;20312;-77
2021/05/05 04:04:43;;;;;;;8.10;7.60;;;8.70;99.90;;;;;;10489711;28;20330;-78
2021/05/05 04:09:46;;;;;;;3.80;3.63;;;8.70;99.90;;;;;;10465478;28;20207;-78
2021/05/05 04:14:48;;;;;;;10.77;10.10;;;8.80;99.90;;;;;;10493901;28;20200;-78
2021/05/05 04:19:51;;;;;;;8.57;8.27;;;8.80;99.90;;;;;;10474988;28;20232;-77
2021/05/05 04:24:54;;;;;;;5.30;4.97;;;8.80;99.90;;;;;;10447571;28;20267;-77
2021/05/05 04:29:56;;;;;;;9.20;8.70;;;8.90;99.90;;;;;;10495583;28;20307;-77
2021/05/05 04:34:57;;;;;;;9.00;8.60;;;8.90;99.90;;;;;;10470852;28;20562;-77
2021/05/05 04:40:01;;;;;;;5.73;5.43;;;8.90;99.90;;;;;;10491819;28;20757;-77
2021/05/05 04:45:03;;;;;;;8.40;8.10;;;9.00;99.90;;;;;;10495198;28;20217;-78
2021/05/05 04:50:08;;;;;;;8.33;7.93;;;8.90;99.90;;;;;;10474882;28;20221;-77
2021/05/05 04:55:12;;;;;;;8.00;7.70;;;8.80;99.90;;;;;;10463402;28;20212;-78
2021/05/05 05:00:14;;;;;;;6.87;6.57;;;8.70;99.90;;;;;;10483288;28;20227;-78
2021/05/05 05:05:16;;;;;;;6.50;6.20;;;8.60;99.90;;;;;;10512125;28;20213;-78
2021/05/05 05:10:18;;;;;;;6.33;6.10;;;8.70;99.90;;;;;;10492365;28;20307;-78
2021/05/05 05:15:20;;;;;;;6.20;6.00;;;8.70;99.90;;;;;;10500343;28;20203;-78
2021/05/05 05:20:22;;;;;;;6.27;6.07;;;8.70;99.90;;;;;;10500373;28;20221;-78
2021/05/05 05:25:27;;;;;;;6.40;6.10;;;8.80;99.90;;;;;;10498329;28;20220;-78
2021/05/05 05:30:29;;;;;;;5.93;5.73;;;8.80;99.90;;;;;;10499252;28;20220;-78
2021/05/05 05:35:30;;;;;;;6.00;5.70;;;8.90;99.90;;;;;;10484732;28;20203;-77
2021/05/05 05:40:33;;;;;;;7.20;6.40;;;8.90;99.90;;;;;;10480994;28;20637;-77
2021/05/05 05:45:35;;;;;;;6.23;5.93;;;9.10;99.90;;;;;;10498562;28;20306;-77
2021/05/05 05:50:37;;;;;;;5.70;5.40;;;9.20;99.90;;;;;;10494787;28;20216;-77
2021/05/05 05:55:43;;;;;;;6.53;6.13;;;9.30;99.90;;;;;;10498286;28;20204;-78
2021/05/05 06:00:44;;;;;;;6.10;5.70;;;9.40;99.90;;;;;;10498057;28;20756;-78
2021/05/05 06:05:46;;;;;;;8.70;7.20;;;9.40;99.90;;;;;;10497639;28;20220;-78
2021/05/05 06:10:49;;;;;;;6.00;5.60;;;9.50;99.90;;;;;;10499114;28;20244;-78
2021/05/05 06:15:50;;;;;;;5.63;5.30;;;9.60;99.90;;;;;;10474068;28;20200;-78
2021/05/05 06:20:52;;;;;;;5.83;5.43;;;9.70;99.90;;;;;;10494996;28;20299;-78
2021/05/05 06:25:55;;;;;;;4.87;4.67;;;10.00;99.90;;;;;;10498687;28;20247;-78
2021/05/05 06:30:58;;;;;;;5.23;4.80;;;10.10;99.90;;;;;;10497781;28;20667;-78
2021/05/05 06:36:00;;;;;;;4.70;4.40;;;10.10;99.90;;;;;;10463232;28;20212;-78
2021/05/05 06:41:02;;;;;;;6.30;5.70;;;10.10;99.90;;;;;;10497127;28;20219;-78
2021/05/05 06:46:04;;;;;;;7.47;6.97;;;10.10;99.90;;;;;;10496608;28;20232;-78
2021/05/05 06:51:06;;;;;;;5.80;5.30;;;10.20;99.90;;;;;;10496436;28;20582;-78
2021/05/05 06:56:08;;;;;;;5.60;5.10;;;10.40;99.90;;;;;;10462508;28;20228;-78
2021/05/05 07:01:10;;;;;;;5.03;4.63;;;10.60;99.90;;;;;;10496857;28;20299;-78
2021/05/05 07:06:12;;;;;;;4.60;4.20;;;10.80;99.90;;;;;;10494957;28;20212;-78
2021/05/05 07:11:15;;;;;;;6.43;4.30;;;10.90;99.90;;;;;;10496463;28;20290;-78
2021/05/05 07:16:17;;;;;;;4.33;3.93;;;10.90;99.90;;;;;;10495969;28;20231;-78
2021/05/05 07:21:19;;;;;;;3.57;3.37;;;11.10;99.90;;;;;;10496256;28;20248;-78
2021/05/05 07:26:22;;;;;;;3.20;2.53;;;11.20;99.90;;;;;;10496098;28;20587;-78
2021/05/05 07:31:24;;;;;;;5.73;2.60;;;11.30;99.90;;;;;;10489406;28;20254;-78
2021/05/05 07:36:26;;;;;;;3.13;2.60;;;11.30;99.90;;;;;;10496395;28;20204;-78
2021/05/05 07:46:57;;;;;;;2.93;2.40;;;11.20;99.90;;;;;;10477838;28;20295;-78
2021/05/05 07:51:59;;;;;;;2.70;2.17;;;11.40;99.90;;;;;;10495909;28;20239;-78
2021/05/05 07:57:01;;;;;;;3.80;2.60;;;11.70;98.00;;;;;;10496925;28;20204;-78
2021/05/05 08:02:04;;;;;;;6.27;2.80;;;12.20;98.00;;;;;;10495457;28;20251;-78
2021/05/05 08:07:06;;;;;;;9.30;2.53;;;12.40;96.10;;;;;;10495842;28;20220;-78
2021/05/05 08:12:09;;;;;;;2.53;2.10;;;12.40;94.20;;;;;;10496776;28;20224;-78
2021/05/05 08:17:11;;;;;;;3.90;2.20;;;12.30;91.90;;;;;;10496590;28;20295;-78
2021/05/05 08:22:13;;;;;;;3.10;2.80;;;12.70;93.20;;;;;;10490752;28;20220;-78
2021/05/05 08:27:15;;;;;;;4.57;2.17;;;12.80;90.80;;;;;;10496117;28;20740;-78
2021/05/05 08:32:17;;;;;;;4.63;2.00;;;12.60;90.00;;;;;;10478715;28;20707;-78
2021/05/05 08:37:19;;;;;;;5.20;2.47;;;12.40;90.20;;;;;;10461492;28;20201;-78
2021/05/05 08:42:21;;;;;;;2.40;2.00;;;12.60;92.20;;;;;;10497304;28;20251;-78
2021/05/05 08:47:23;;;;;;;3.73;2.20;;;13.10;92.00;;;;;;10496604;28;20278;-78
2021/05/05 08:52:25;;;;;;;3.00;2.07;;;13.70;92.00;;;;;;10479247;28;20217;-78
2021/05/05 08:57:27;;;;;;;5.27;2.23;;;14.00;86.40;;;;;;10498310;28;20189;-78
2021/05/05 09:02:29;;;;;;;2.20;2.00;;;14.20;85.20;;;;;;10498261;28;20278;-78
2021/05/05 09:07:33;;;;;;;6.73;2.00;;;14.40;83.20;;;;;;10495262;28;20294;-78
2021/05/05 09:12:37;;;;;;;2.10;2.00;;;14.50;72.10;;;;;;10496333;28;20217;-78
2021/05/05 09:17:44;;;;;;;3.10;1.80;;;14.50;72.80;;;;;;10498899;28;20199;-78
2021/05/05 09:22:50;;;;;;;2.47;2.03;;;14.70;77.10;;;;;;10503611;28;20228;-78
2021/05/05 09:28:10;;;;;;;2.40;1.93;;;15.20;73.40;;;;;;10484671;28;20497;-78
2021/05/05 09:33:22;;;;;;;1.70;1.60;;;15.50;66.90;;;;;;10503990;28;20567;-78
2021/05/05 09:38:40;;;;;;;3.60;1.50;;;15.70;66.80;;;;;;10501928;28;20692;-78
2021/05/05 09:43:43;;;;;;;5.47;2.03;;;15.80;61.20;;;;;;10560987;22;20568;-80
2021/05/05 09:48:44;;;;;;;3.37;1.53;;;15.90;60.80;;;;;;10540492;28;20208;-81
2021/05/05 09:53:53;;;;;;;2.10;1.50;;;16.30;57.80;;;;;;10506193;28;20246;-81
2021/05/05 09:59:00;;;;;;;2.23;2.03;;;16.70;55.10;;;;;;10510624;28;20290;-81
2021/05/05 10:04:03;;;;;;;2.57;1.90;;;17.20;58.90;;;;;;10535650;28;20303;-79
2021/05/05 10:09:07;;;;;;;3.37;1.67;;;17.70;57.70;;;;;;10544495;28;20238;-82
2021/05/05 10:14:11;;;;;;;2.70;1.67;;;18.10;56.40;;;;;;10554230;28;20288;-82
2021/05/05 10:19:15;;;;;;;2.20;1.60;;;17.90;53.40;;;;;;10551270;28;20227;-81
2021/05/05 10:24:17;;;;;;;2.97;2.20;;;17.30;53.20;;;;;;10548247;28;20695;-81
2021/05/05 10:29:23;;;;;;;2.23;1.40;;;16.70;52.00;;;;;;10545877;28;20199;-82
2021/05/05 10:34:27;;;;;;;2.97;1.90;;;16.20;53.80;;;;;;10529683;28;20219;-82
2021/05/05 10:39:34;;;;;;;2.13;1.73;;;15.90;51.50;;;;;;10544945;28;20630;-82
2021/05/05 10:44:39;;;;;;;1.70;1.60;;;15.80;54.00;;;;;;10549806;28;20305;-81
2021/05/05 10:50:07;;;;;;;4.30;2.20;;;15.80;53.90;;;;;;10548986;28;20204;-81
2021/05/05 10:55:10;;;;;;;2.50;1.57;;;15.60;52.70;;;;;;10531009;28;20234;-79
2021/05/05 11:00:14;;;;;;;2.60;1.00;;;15.10;58.10;;;;;;10549749;28;20203;-79
2021/05/05 11:05:17;;;;;;;3.10;1.40;;;14.30;70.40;;;;;;10532848;28;20711;-78
2021/05/05 11:10:56;;;;;;;1.43;1.30;;;13.20;79.30;;;;;;10540614;28;20199;-80
2021/05/05 11:16:00;;;;;;;1.70;1.43;;;12.10;83.80;;;;;;10539008;28;20195;-81
2021/05/05 11:21:05;;;;;;;1.17;1.13;;;11.20;87.10;;;;;;10539480;28;20591;-81
2021/05/05 11:26:17;;;;;;;2.13;1.80;;;11.00;90.90;;;;;;10525518;28;20228;-80
2021/05/05 11:31:19;;;;;;;1.23;1.17;;;10.90;91.70;;;;;;10531377;28;20251;-80
2021/05/05 11:36:21;;;;;;;1.17;1.13;;;11.10;92.50;;;;;;10509697;28;20265;-80
2021/05/05 11:41:27;;;;;;;1.27;1.17;;;11.10;92.10;;;;;;10495603;28;20212;-78
2021/05/05 11:46:29;;;;;;;1.93;1.27;;;11.00;92.20;;;;;;10506560;28;20565;-81
2021/05/05 11:51:31;;;;;;;1.53;1.40;;;11.20;92.30;;;;;;10506733;28;20223;-80
2021/05/05 11:56:33;;;;;;;1.30;1.20;;;11.50;93.10;;;;;;10504358;28;20247;-81
2021/05/05 12:01:38;;;;;;;2.27;1.77;;;11.50;91.50;;;;;;10521181;28;20219;-80
2021/05/05 12:06:56;;;;;;;1.40;1.23;;;11.50;91.70;;;;;;10536569;28;20220;-81
2021/05/05 12:12:27;;;;;;;1.50;1.40;;;11.90;90.70;;;;;;10521416;28;20216;-80
2021/05/05 12:17:32;;;;;;;2.07;1.87;;;12.00;88.30;;;;;;10503459;28;20204;-79
2021/05/05 12:22:52;;;;;;;1.90;1.80;;;11.90;87.60;;;;;;10517817;28;20221;-81
2021/05/05 12:28:13;;;;;;;1.73;1.63;;;11.90;88.80;;;;;;10518763;28;20215;-80
2021/05/05 12:33:19;;;;;;;4.03;1.70;;;12.00;87.30;;;;;;10531789;28;20555;-80
2021/05/05 12:38:20;;;;;;;2.50;1.80;;;12.30;84.60;;;;;;10513269;28;20291;-80
2021/05/05 12:43:26;;;;;;;1.87;1.30;;;12.60;82.70;;;;;;10537575;28;20851;-80
2021/05/05 12:48:31;;;;;;;1.30;1.20;;;12.80;78.60;;;;;;10536043;28;20231;-81
2021/05/05 12:53:50;;;;;;;2.80;1.70;;;12.80;78.60;;;;;;10515243;28;20219;-81
2021/05/05 12:58:51;;;;;;;1.73;1.60;;;12.60;81.40;;;;;;10526276;28;20238;-80
2021/05/05 13:03:54;;;;;;;2.10;1.90;;;12.30;84.60;;;;;;10523729;28;20216;-81
2021/05/05 13:08:57;;;;;;;1.40;1.30;;;12.00;88.20;;;;;;10512328;28;20204;-81
2021/05/05 13:14:03;;;;;;;1.37;1.37;;;11.90;84.50;;;;;;10541410;28;20299;-81
2021/05/05 13:35:29;;;;;;;2.37;1.50;;;12.40;81.70;;;;;;10542124;28;20262;-81
2021/05/05 13:40:34;;;;;;;1.93;1.80;;;12.40;77.50;;;;;;10536901;28;20208;-81
2021/05/05 13:45:40;;;;;;;1.50;1.40;;;12.60;78.70;;;;;;10532245;28;20231;-81
2021/05/05 13:50:42;;;;;;;2.40;1.70;;;12.60;77.10;;;;;;10561115;28;20204;-81
2021/05/05 13:55:44;;;;;;;1.93;1.20;;;12.60;73.30;;;;;;10559510;28;20743;-81
2021/05/05 14:00:46;;;;;;;4.17;1.50;;;12.70;73.00;;;;;;10570792;28;20207;-80
2021/05/05 14:05:54;;;;;;;1.80;1.70;;;12.80;75.30;;;;;;10552169;28;20231;-80
2021/05/05 14:10:56;;;;;;;1.27;1.27;;;13.00;72.00;;;;;;10555840;28;20458;-80
2021/05/05 14:15:59;;;;;;;2.00;1.60;;;13.30;75.50;;;;;;10549909;28;20192;-80
2021/05/05 14:21:07;;;;;;;2.03;1.40;;;13.40;71.40;;;;;;10524083;28;20283;-80
2021/05/05 14:26:08;;;;;;;3.63;1.60;;;13.20;75.70;;;;;;10525622;28;20243;-80
2021/05/05 14:31:11;;;;;;;1.70;1.60;;;13.10;76.00;;;;;;10521633;28;20196;-80
2021/05/05 14:36:14;;;;;;;2.30;1.83;;;12.90;77.20;;;;;;10534610;28;20252;-80
2021/05/05 14:41:20;;;;;;;1.97;1.77;;;12.80;79.10;;;;;;10534227;28;20222;-80
2021/05/05 14:51:48;;;;;;;2.20;1.97;;;12.90;71.70;;;;;;10450469;28;20231;-80
2021/05/05 14:56:50;;;;;;;1.60;1.50;;;12.80;73.60;;;;;;10485329;28;20244;-81
2021/05/05 15:01:52;;;;;;;2.13;2.03;;;13.00;72.90;;;;;;10538510;28;20284;-80
2021/05/05 15:06:58;;;;;;;1.37;1.27;;;13.10;69.60;;;;;;10524970;28;20299;-80
2021/05/05 15:28:13;;;;;;;1.70;1.60;;;13.60;64.00;;;;;;10525607;28;20223;-81
2021/05/05 15:38:41;;;;;;;1.20;1.10;;;13.00;64.90;;;;;;10519949;28;20195;-81
2021/05/05 15:49:03;;;;;;;1.73;1.63;;;12.70;66.10;;;;;;10391028;28;20202;-76
2021/05/05 15:54:07;;;;;;;2.33;1.77;;;12.50;66.40;;;;;;10387404;28;20305;-75
2021/05/05 15:59:12;;;;;;;1.60;1.50;;;12.30;69.30;;;;;;10370297;28;20234;-76
2021/05/05 16:09:46;;;;;;;1.70;1.60;;;12.20;69.90;;;;;;10334848;28;20206;-75
2021/05/05 16:15:01;;;;;;;1.67;1.57;;;12.40;71.00;;;;;;10346789;28;20588;-76
2021/05/05 16:20:06;;;;;;;4.10;1.90;;;12.50;71.60;;;;;;10358449;28;20280;-75
2021/05/05 16:25:18;;;;;;;2.03;1.93;;;12.50;78.40;;;;;;10367806;28;20612;-75
2021/05/05 16:51:51;;;;;;;3.20;1.90;;;11.80;75.90;;;;;;10375017;28;20229;-76
2021/05/05 16:56:59;;;;;;;1.50;1.40;;;11.80;70.00;;;;;;10383375;28;20585;-76
2021/05/05 17:07:40;;;;;;;2.70;1.93;;;11.70;68.10;;;;;;10417274;28;20708;-75
2021/05/05 17:12:43;;;;;;;2.40;1.60;;;11.60;69.40;;;;;;10417279;28;20217;-76
2021/05/05 17:17:51;;;;;;;1.97;1.80;;;11.60;68.80;;;;;;10409535;28;20232;-75
2021/05/05 17:22:59;;;;;;;1.47;1.37;;;11.50;71.90;;;;;;10416520;28;20222;-76
2021/05/05 17:28:10;;;;;;;2.17;1.80;;;11.50;72.60;;;;;;10409704;28;20217;-76
2021/05/05 17:44:11;;;;;;;2.20;2.10;;;11.40;73.50;;;;;;10391228;28;20237;-76
2021/05/05 17:49:24;;;;;;;2.90;2.00;;;11.40;73.70;;;;;;10407004;28;20202;-76
2021/05/05 18:10:41;;;;;;;2.10;2.00;;;11.60;70.30;;;;;;10392763;28;20658;-76
2021/05/05 18:15:56;;;;;;;2.20;1.60;;;11.50;71.60;;;;;;10414182;28;20682;-76
2021/05/05 18:21:01;;;;;;;2.10;1.90;;;11.50;72.00;;;;;;10396654;28;20198;-76
2021/05/05 18:26:32;;;;;;;1.80;1.70;;;11.40;73.10;;;;;;10401059;28;20236;-75
2021/05/05 18:31:34;;;;;;;1.90;1.80;;;11.30;73.30;;;;;;10414169;28;20209;-76
2021/05/05 18:36:36;;;;;;;1.97;1.50;;;11.30;71.60;;;;;;10397527;28;20244;-76
2021/05/05 18:41:53;;;;;;;2.63;1.90;;;11.20;72.30;;;;;;10408617;28;20194;-76
2021/05/05 18:58:03;;;;;;;2.00;1.57;;;10.90;74.90;;;;;;10373450;28;20332;-77
2021/05/05 19:08:41;;;;;;;2.00;1.80;;;10.70;76.00;;;;;;10362570;28;20288;-77
2021/05/05 19:14:11;;;;;;;1.70;1.60;;;10.60;75.70;;;;;;10377037;28;20226;-77
2021/05/05 20:40:37;;;;;;;3.13;1.47;;;9.80;77.50;;;;;;10378412;28;20206;-77
2021/05/05 20:45:57;;;;;;;1.60;1.50;;;9.70;78.00;;;;;;10376909;28;20702;-77
2021/05/05 21:23:30;;;;;;;1.70;1.60;;;9.60;78.50;;;;;;10379403;28;20284;-77
2021/05/05 22:01:26;;;;;;;2.00;1.90;;;9.40;82.60;;;;;;10546300;28;20240;-80
2021/05/05 22:34:13;;;;;;;2.97;2.50;;;9.50;85.20;;;;;;10385148;28;20225;-80
2021/05/05 22:40:08;;;;;;;2.57;2.40;;;9.50;84.00;;;;;;10505298;28;20200;-81
2021/05/05 23:21:52;;;;;;;2.13;1.93;;;9.30;85.40;;;;;;10533296;28;20192;-84
2021/05/05 23:23:25;;;;;;;2.23;2.13;;;9.40;86.60;;;;;;10541607;28;20223;-82
2021/05/05 23:28:31;;;;;;;2.20;2.10;;;9.50;85.80;;;;;;10538586;28;20246;-81
2021/05/05 23:33:56;;;;;;;2.20;2.00;;;9.50;85.90;;;;;;10507527;28;20266;-82
2021/05/05 23:39:29;;;;;;;1.70;1.60;;;9.50;86.50;;;;;;10495584;28;20663;-79
2021/05/05 23:55:35;;;;;;;3.00;2.00;;;9.60;86.00;;;;;;10524127;28;20302;-81
